sensor_id;sensor_type;location;lat;lon;timestamp;pressure;altitude;pressure_sealevel;temperature;humidity
19831;BME280;10076;52.008;4.708;2024-03-06T00:02:04;101791.44;;;10.72;100.00
19831;BME280;10076;52.008;4.708;2024-03-06T00:04:29;101799.47;;;10.39;100.00
19831;BME280;10076;52.008;4.708;2024-03-06T00:06:55;101796.56;;;10.44;100.00
19831;BME280;10076;52.008;4.708;2024-03-06T00:09:20;101803.47;;;10.62;100.00
19831;BME280;10076;52.008;4.708;2024-03-06T00:11:46;101805.41;;;10.58;100.00
19831;BME280;10076;52.008;4.708;2024-03-06T00:14:11;101814.44;;;10.39;100.00
19831;BME280;10076;52.008;4.708;2024-03-06T00:16:38;101817.78;;;10.58;100.00
19831;BME280;10076;52.008;4.708;2024-03-06T00:19:03;101817.69;;;10.59;100.00
19831;BME280;10076;52.008;4.708;2024-03-06T00:21:29;101820.66;;;10.53;100.00
19831;BME280;10076;52.008;4.708;2024-03-06T00:23:54;101817.88;;;10.56;100.00
19831;BME280;10076;52.008;4.708;2024-03-06T00:26:21;101812.84;;;10.52;100.00
19831;BME280;10076;52.008;4.708;2024-03-06T00:28:46;101815.38;;;10.38;100.00
19831;BME280;10076;52.008;4.708;2024-03-06T00:31:12;101824.81;;;10.27;100.00
19831;BME280;10076;52.008;4.708;2024-03-06T00:33:37;101821.81;;;10.17;100.00
19831;BME280;10076;52.008;4.708;2024-03-06T00:36:03;101819.63;;;10.25;100.00
19831;BME280;10076;52.008;4.708;2024-03-06T00:38:28;101817.16;;;10.37;100.00
19831;BME280;10076;52.008;4.708;2024-03-06T00:40:54;101823.63;;;10.32;100.00
19831;BME280;10076;52.008;4.708;2024-03-06T00:43:19;101829.06;;;10.29;100.00
19831;BME280;10076;52.008;4.708;2024-03-06T00:45:45;101823.28;;;10.38;100.00
19831;BME280;10076;52.008;4.708;2024-03-06T00:48:11;101827.59;;;10.24;100.00
19831;BME280;10076;52.008;4.708;2024-03-06T00:50:36;101834.50;;;10.26;100.00
19831;BME280;10076;52.008;4.708;2024-03-06T00:53:01;101829.06;;;10.29;100.00
19831;BME280;10076;52.008;4.708;2024-03-06T00:55:28;101830.59;;;10.33;100.00
19831;BME280;10076;52.008;4.708;2024-03-06T00:57:53;101830.78;;;10.30;100.00
19831;BME280;10076;52.008;4.708;2024-03-06T01:00:19;101830.59;;;10.33;100.00
19831;BME280;10076;52.008;4.708;2024-03-06T01:02:44;101833.25;;;10.33;100.00
19831;BME280;10076;52.008;4.708;2024-03-06T01:05:10;101834.88;;;10.35;100.00
19831;BME280;10076;52.008;4.708;2024-03-06T01:07:38;101838.75;;;10.29;100.00
19831;BME280;10076;52.008;4.708;2024-03-06T01:10:05;101848.66;;;10.25;100.00
19831;BME280;10076;52.008;4.708;2024-03-06T01:12:33;101838.84;;;10.27;100.00
19831;BME280;10076;52.008;4.708;2024-03-06T01:14:59;101844.22;;;10.26;100.00
19831;BME280;10076;52.008;4.708;2024-03-06T01:17:24;101846.63;;;10.30;100.00
19831;BME280;10076;52.008;4.708;2024-03-06T01:19:50;101843.88;;;10.32;100.00
19831;BME280;10076;52.008;4.708;2024-03-06T01:22:15;101843.19;;;10.28;100.00
19831;BME280;10076;52.008;4.708;2024-03-06T01:24:41;101845.06;;;10.26;100.00
19831;BME280;10076;52.008;4.708;2024-03-06T01:27:06;101841.75;;;10.38;100.00
19831;BME280;10076;52.008;4.708;2024-03-06T01:29:32;101845.28;;;10.38;100.00
19831;BME280;10076;52.008;4.708;2024-03-06T01:31:58;101849.28;;;10.45;100.00
19831;BME280;10076;52.008;4.708;2024-03-06T01:34:23;101851.31;;;10.40;100.00
19831;BME280;10076;52.008;4.708;2024-03-06T01:36:48;101843.38;;;10.40;100.00
19831;BME280;10076;52.008;4.708;2024-03-06T01:39:14;101861.81;;;10.42;100.00
19831;BME280;10076;52.008;4.708;2024-03-06T01:41:48;101854.28;;;10.34;100.00
19831;BME280;10076;52.008;4.708;2024-03-06T01:44:15;101860.06;;;10.26;100.00
19831;BME280;10076;52.008;4.708;2024-03-06T01:46:40;101862.59;;;10.27;100.00
19831;BME280;10076;52.008;4.708;2024-03-06T01:49:06;101856.91;;;10.19;100.00
19831;BME280;10076;52.008;4.708;2024-03-06T01:51:32;101864.81;;;10.19;100.00
19831;BME280;10076;52.008;4.708;2024-03-06T01:53:57;101867.41;;;10.04;100.00
19831;BME280;10076;52.008;4.708;2024-03-06T01:56:24;101869.72;;;10.10;100.00
19831;BME280;10076;52.008;4.708;2024-03-06T01:58:50;101868.72;;;10.12;100.00
19831;BME280;10076;52.008;4.708;2024-03-06T02:01:16;101873.75;;;10.17;100.00
19831;BME280;10076;52.008;4.708;2024-03-06T02:03:43;101872.19;;;10.13;100.00
19831;BME280;10076;52.008;4.708;2024-03-06T02:06:10;101873.97;;;9.95;100.00
19831;BME280;10076;52.008;4.708;2024-03-06T02:08:36;101874.72;;;9.99;100.00
19831;BME280;10076;52.008;4.708;2024-03-06T02:11:01;101874.63;;;10.00;100.00
19831;BME280;10076;52.008;4.708;2024-03-06T02:13:28;101882.91;;;9.93;100.00
19831;BME280;10076;52.008;4.708;2024-03-06T02:15:54;101885.38;;;9.62;100.00
19831;BME280;10076;52.008;4.708;2024-03-06T02:18:20;101879.31;;;9.77;100.00
19831;BME280;10076;52.008;4.708;2024-03-06T02:20:46;101882.34;;;9.86;100.00
19831;BME280;10076;52.008;4.708;2024-03-06T02:23:12;101882.25;;;9.88;100.00
19831;BME280;10076;52.008;4.708;2024-03-06T02:25:38;101879.31;;;9.94;100.00
19831;BME280;10076;52.008;4.708;2024-03-06T02:28:03;101881.63;;;9.83;100.00
19831;BME280;10076;52.008;4.708;2024-03-06T02:30:31;101883.88;;;9.73;100.00
19831;BME280;10076;52.008;4.708;2024-03-06T02:33:01;101883.34;;;9.84;100.00
19831;BME280;10076;52.008;4.708;2024-03-06T02:35:26;101883.66;;;9.78;100.00
19831;BME280;10076;52.008;4.708;2024-03-06T02:37:53;101888.81;;;9.81;100.00
19831;BME280;10076;52.008;4.708;2024-03-06T02:40:18;101895.13;;;9.60;100.00
19831;BME280;10076;52.008;4.708;2024-03-06T02:42:44;101886.78;;;9.69;100.00
19831;BME280;10076;52.008;4.708;2024-03-06T02:45:09;101889.72;;;9.80;100.00
19831;BME280;10076;52.008;4.708;2024-03-06T02:47:35;101885.84;;;9.87;100.00
19831;BME280;10076;52.008;4.708;2024-03-06T02:50:00;101890.44;;;9.66;100.00
19831;BME280;10076;52.008;4.708;2024-03-06T02:52:25;101893.69;;;9.71;100.00
19831;BME280;10076;52.008;4.708;2024-03-06T02:54:51;101887.00;;;9.64;100.00
19831;BME280;10076;52.008;4.708;2024-03-06T02:57:16;101891.75;;;9.58;100.00
19831;BME280;10076;52.008;4.708;2024-03-06T02:59:42;101886.00;;;9.67;100.00
19831;BME280;10076;52.008;4.708;2024-03-06T03:02:07;101887.84;;;9.65;100.00
19831;BME280;10076;52.008;4.708;2024-03-06T03:04:33;101882.34;;;9.53;100.00
19831;BME280;10076;52.008;4.708;2024-03-06T03:06:58;101889.25;;;9.55;100.00
19831;BME280;10076;52.008;4.708;2024-03-06T03:09:23;101891.81;;;9.73;100.00
19831;BME280;10076;52.008;4.708;2024-03-06T03:11:49;101881.91;;;9.62;100.00
19831;BME280;10076;52.008;4.708;2024-03-06T03:14:14;101887.47;;;9.56;100.00
19831;BME280;10076;52.008;4.708;2024-03-06T03:16:39;101887.81;;;9.48;100.00
19831;BME280;10076;52.008;4.708;2024-03-06T03:19:07;101880.88;;;9.47;100.00
19831;BME280;10076;52.008;4.708;2024-03-06T03:21:33;101890.94;;;9.39;100.00
19831;BME280;10076;52.008;4.708;2024-03-06T03:23:58;101894.97;;;9.46;100.00
19831;BME280;10076;52.008;4.708;2024-03-06T03:26:24;101892.78;;;9.37;100.00
19831;BME280;10076;52.008;4.708;2024-03-06T03:28:49;101898.22;;;9.34;100.00
19831;BME280;10076;52.008;4.708;2024-03-06T03:31:14;101899.06;;;9.35;100.00
19831;BME280;10076;52.008;4.708;2024-03-06T03:33:40;101894.94;;;9.29;100.00
19831;BME280;10076;52.008;4.708;2024-03-06T03:36:06;101898.63;;;9.25;100.00
19831;BME280;10076;52.008;4.708;2024-03-06T03:38:38;101905.84;;;9.22;100.00
19831;BME280;10076;52.008;4.708;2024-03-06T03:41:12;101907.72;;;9.20;100.00
19831;BME280;10076;52.008;4.708;2024-03-06T03:43:41;101905.44;;;9.12;100.00
19831;BME280;10076;52.008;4.708;2024-03-06T03:46:07;101905.38;;;9.14;100.00
19831;BME280;10076;52.008;4.708;2024-03-06T03:48:32;101916.13;;;9.09;100.00
19831;BME280;10076;52.008;4.708;2024-03-06T03:51:01;101908.22;;;9.09;100.00
19831;BME280;10076;52.008;4.708;2024-03-06T03:53:28;101913.47;;;9.09;100.00
19831;BME280;10076;52.008;4.708;2024-03-06T03:55:54;101905.78;;;9.05;100.00
19831;BME280;10076;52.008;4.708;2024-03-06T03:58:19;101918.50;;;8.97;100.00
19831;BME280;10076;52.008;4.708;2024-03-06T04:00:44;101909.88;;;8.93;100.00
19831;BME280;10076;52.008;4.708;2024-03-06T04:03:10;101907.38;;;8.91;100.00
19831;BME280;10076;52.008;4.708;2024-03-06T04:05:37;101907.53;;;8.88;100.00
19831;BME280;10076;52.008;4.708;2024-03-06T04:08:03;101908.66;;;8.82;100.00
19831;BME280;10076;52.008;4.708;2024-03-06T04:10:31;101909.53;;;8.83;100.00
19831;BME280;10076;52.008;4.708;2024-03-06T04:12:56;101914.19;;;8.76;100.00
19831;BME280;10076;52.008;4.708;2024-03-06T04:15:24;101920.56;;;8.52;100.00
19831;BME280;10076;52.008;4.708;2024-03-06T04:17:50;101915.94;;;8.39;100.00
19831;BME280;10076;52.008;4.708;2024-03-06T04:20:15;101914.03;;;8.42;100.00
19831;BME280;10076;52.008;4.708;2024-03-06T04:22:41;101917.00;;;8.35;100.00
19831;BME280;10076;52.008;4.708;2024-03-06T04:25:06;101921.34;;;8.36;100.00
19831;BME280;10076;52.008;4.708;2024-03-06T04:27:32;101922.25;;;8.35;100.00
19831;BME280;10076;52.008;4.708;2024-03-06T04:29:58;101932.16;;;8.48;100.00
19831;BME280;10076;52.008;4.708;2024-03-06T04:32:23;101925.09;;;8.30;100.00
19831;BME280;10076;52.008;4.708;2024-03-06T04:34:49;101922.16;;;8.18;100.00
19831;BME280;10076;52.008;4.708;2024-03-06T04:37:14;101930.88;;;8.19;100.00
19831;BME280;10076;52.008;4.708;2024-03-06T04:39:40;101934.16;;;8.23;100.00
19831;BME280;10076;52.008;4.708;2024-03-06T04:42:06;101925.31;;;8.26;100.00
19831;BME280;10076;52.008;4.708;2024-03-06T04:44:34;101939.50;;;8.22;100.00
19831;BME280;10076;52.008;4.708;2024-03-06T04:46:59;101946.44;;;8.03;100.00
19831;BME280;10076;52.008;4.708;2024-03-06T04:49:24;101943.81;;;7.83;100.00
19831;BME280;10076;52.008;4.708;2024-03-06T04:51:50;101944.41;;;7.68;100.00
19831;BME280;10076;52.008;4.708;2024-03-06T04:54:15;101948.03;;;7.66;100.00
19831;BME280;10076;52.008;4.708;2024-03-06T04:56:40;101947.53;;;7.78;100.00
19831;BME280;10076;52.008;4.708;2024-03-06T04:59:06;101947.13;;;7.67;100.00
19831;BME280;10076;52.008;4.708;2024-03-06T05:01:31;101954.84;;;7.50;100.00
19831;BME280;10076;52.008;4.708;2024-03-06T05:03:56;101955.06;;;7.65;100.00
19831;BME280;10076;52.008;4.708;2024-03-06T05:06:22;101958.38;;;7.70;100.00
19831;BME280;10076;52.008;4.708;2024-03-06T05:08:48;101966.19;;;7.72;100.00
19831;BME280;10076;52.008;4.708;2024-03-06T05:11:14;101969.84;;;7.89;100.00
19831;BME280;10076;52.008;4.708;2024-03-06T05:13:40;101972.78;;;7.82;100.00
19831;BME280;10076;52.008;4.708;2024-03-06T05:16:06;101968.78;;;7.73;100.00
19831;BME280;10076;52.008;4.708;2024-03-06T05:18:34;101970.41;;;7.76;100.00
19831;BME280;10076;52.008;4.708;2024-03-06T05:20:59;101965.34;;;7.71;100.00
19831;BME280;10076;52.008;4.708;2024-03-06T05:23:25;101966.91;;;7.75;100.00
19831;BME280;10076;52.008;4.708;2024-03-06T05:25:50;101969.03;;;7.46;100.00
19831;BME280;10076;52.008;4.708;2024-03-06T05:28:15;101981.19;;;7.49;100.00
19831;BME280;10076;52.008;4.708;2024-03-06T05:30:41;101982.94;;;7.48;100.00
19831;BME280;10076;52.008;4.708;2024-03-06T05:33:06;101987.34;;;7.48;100.00
19831;BME280;10076;52.008;4.708;2024-03-06T05:35:31;101975.38;;;7.41;100.00
19831;BME280;10076;52.008;4.708;2024-03-06T05:37:58;101979.13;;;7.34;100.00
19831;BME280;10076;52.008;4.708;2024-03-06T05:40:23;101982.81;;;7.30;100.00
19831;BME280;10076;52.008;4.708;2024-03-06T05:42:49;101992.84;;;7.42;100.00
19831;BME280;10076;52.008;4.708;2024-03-06T05:45:14;101991.50;;;7.32;100.00
19831;BME280;10076;52.008;4.708;2024-03-06T05:47:40;101994.81;;;7.37;100.00
19831;BME280;10076;52.008;4.708;2024-03-06T05:50:06;101995.16;;;7.28;100.00
19831;BME280;10076;52.008;4.708;2024-03-06T05:52:31;102008.47;;;7.23;100.00
19831;BME280;10076;52.008;4.708;2024-03-06T05:54:57;102005.34;;;7.14;100.00
19831;BME280;10076;52.008;4.708;2024-03-06T05:57:22;102007.44;;;7.04;100.00
19831;BME280;10076;52.008;4.708;2024-03-06T05:59:48;102010.47;;;6.94;100.00
19831;BME280;10076;52.008;4.708;2024-03-06T06:02:13;102024.63;;;7.13;100.00
19831;BME280;10076;52.008;4.708;2024-03-06T06:04:41;102021.25;;;7.09;100.00
19831;BME280;10076;52.008;4.708;2024-03-06T06:07:06;102025.22;;;6.98;100.00
19831;BME280;10076;52.008;4.708;2024-03-06T06:09:32;102028.13;;;7.13;100.00
19831;BME280;10076;52.008;4.708;2024-03-06T06:11:58;102031.16;;;7.03;100.00
19831;BME280;10076;52.008;4.708;2024-03-06T06:14:24;102035.03;;;6.93;100.00
19831;BME280;10076;52.008;4.708;2024-03-06T06:16:52;102043.06;;;6.88;100.00
19831;BME280;10076;52.008;4.708;2024-03-06T06:19:17;102042.94;;;6.91;100.00
19831;BME280;10076;52.008;4.708;2024-03-06T06:21:43;102044.38;;;7.00;100.00
19831;BME280;10076;52.008;4.708;2024-03-06T06:24:08;102047.59;;;7.08;100.00
19831;BME280;10076;52.008;4.708;2024-03-06T06:26:33;102045.41;;;6.96;100.00
19831;BME280;10076;52.008;4.708;2024-03-06T06:28:59;102051.72;;;6.90;100.00
19831;BME280;10076;52.008;4.708;2024-03-06T06:31:24;102050.94;;;6.88;100.00
19831;BME280;10076;52.008;4.708;2024-03-06T06:33:51;102064.13;;;6.87;100.00
19831;BME280;10076;52.008;4.708;2024-03-06T06:36:17;102061.69;;;7.05;100.00
19831;BME280;10076;52.008;4.708;2024-03-06T06:38:43;102065.59;;;6.94;100.00
19831;BME280;10076;52.008;4.708;2024-03-06T06:41:09;102073.16;;;7.03;100.00
19831;BME280;10076;52.008;4.708;2024-03-06T06:43:35;102079.38;;;7.00;100.00
19831;BME280;10076;52.008;4.708;2024-03-06T06:46:00;102084.09;;;6.91;100.00
19831;BME280;10076;52.008;4.708;2024-03-06T06:48:26;102086.44;;;6.98;100.00
19831;BME280;10076;52.008;4.708;2024-03-06T06:50:52;102088.25;;;6.96;100.00
19831;BME280;10076;52.008;4.708;2024-03-06T06:53:17;102090.63;;;7.04;100.00
19831;BME280;10076;52.008;4.708;2024-03-06T06:55:42;102093.50;;;6.98;100.00
19831;BME280;10076;52.008;4.708;2024-03-06T06:58:08;102090.25;;;6.90;100.00
19831;BME280;10076;52.008;4.708;2024-03-06T07:00:33;102099.72;;;6.94;100.00
19831;BME280;10076;52.008;4.708;2024-03-06T07:02:59;102103.19;;;6.96;100.00
19831;BME280;10076;52.008;4.708;2024-03-06T07:05:25;102107.88;;;7.11;100.00
19831;BME280;10076;52.008;4.708;2024-03-06T07:07:51;102108.66;;;7.13;100.00
19831;BME280;10076;52.008;4.708;2024-03-06T07:10:18;102113.13;;;6.86;100.00
19831;BME280;10076;52.008;4.708;2024-03-06T07:12:44;102115.13;;;7.04;100.00
19831;BME280;10076;52.008;4.708;2024-03-06T07:15:09;102121.06;;;7.09;100.00
19831;BME280;10076;52.008;4.708;2024-03-06T07:17:34;102121.25;;;7.28;100.00
19831;BME280;10076;52.008;4.708;2024-03-06T07:20:00;102123.75;;;7.31;100.00
19831;BME280;10076;52.008;4.708;2024-03-06T07:22:25;102128.56;;;7.43;100.00
19831;BME280;10076;52.008;4.708;2024-03-06T07:24:51;102132.97;;;7.65;100.00
19831;BME280;10076;52.008;4.708;2024-03-06T07:27:16;102144.84;;;7.75;100.00
19831;BME280;10076;52.008;4.708;2024-03-06T07:29:42;102134.28;;;7.98;100.00
19831;BME280;10076;52.008;4.708;2024-03-06T07:32:07;102138.19;;;8.09;100.00
19831;BME280;10076;52.008;4.708;2024-03-06T07:34:33;102138.16;;;8.11;100.00
19831;BME280;10076;52.008;4.708;2024-03-06T07:36:58;102141.22;;;8.43;100.00
19831;BME280;10076;52.008;4.708;2024-03-06T07:39:25;102149.53;;;8.54;100.00
19831;BME280;10076;52.008;4.708;2024-03-06T07:41:50;102150.34;;;8.76;100.00
19831;BME280;10076;52.008;4.708;2024-03-06T07:44:16;102151.41;;;8.92;100.00
19831;BME280;10076;52.008;4.708;2024-03-06T07:46:41;102154.31;;;9.05;100.00
19831;BME280;10076;52.008;4.708;2024-03-06T07:49:07;102159.59;;;9.05;100.00
19831;BME280;10076;52.008;4.708;2024-03-06T07:51:32;102158.50;;;9.29;100.00
19831;BME280;10076;52.008;4.708;2024-03-06T07:53:58;102164.91;;;9.42;100.00
19831;BME280;10076;52.008;4.708;2024-03-06T07:56:25;102172.88;;;9.61;100.00
19831;BME280;10076;52.008;4.708;2024-03-06T07:58:50;102180.16;;;9.56;100.00
19831;BME280;10076;52.008;4.708;2024-03-06T08:01:16;102173.41;;;9.87;100.00
19831;BME280;10076;52.008;4.708;2024-03-06T08:03:41;102174.72;;;9.97;100.00
19831;BME280;10076;52.008;4.708;2024-03-06T08:06:08;102180.13;;;10.12;100.00
19831;BME280;10076;52.008;4.708;2024-03-06T08:08:34;102188.88;;;10.13;100.00
19831;BME280;10076;52.008;4.708;2024-03-06T08:10:59;102184.44;;;10.32;100.00
19831;BME280;10076;52.008;4.708;2024-03-06T08:13:25;102189.19;;;10.25;100.00
19831;BME280;10076;52.008;4.708;2024-03-06T08:15:50;102192.75;;;10.24;100.00
19831;BME280;10076;52.008;4.708;2024-03-06T08:18:16;102196.56;;;10.35;100.00
19831;BME280;10076;52.008;4.708;2024-03-06T08:20:41;102193.50;;;10.44;100.00
19831;BME280;10076;52.008;4.708;2024-03-06T08:23:07;102197.88;;;10.62;100.00
19831;BME280;10076;52.008;4.708;2024-03-06T08:25:33;102198.66;;;10.81;100.00
19831;BME280;10076;52.008;4.708;2024-03-06T08:27:58;102208.88;;;11.05;100.00
19831;BME280;10076;52.008;4.708;2024-03-06T08:30:24;102213.59;;;11.16;100.00
19831;BME280;10076;52.008;4.708;2024-03-06T08:32:50;102218.03;;;10.99;100.00
19831;BME280;10076;52.008;4.708;2024-03-06T08:35:16;102218.56;;;10.88;100.00
19831;BME280;10076;52.008;4.708;2024-03-06T08:37:43;102219.91;;;10.97;100.00
19831;BME280;10076;52.008;4.708;2024-03-06T08:40:10;102215.78;;;11.08;100.00
19831;BME280;10076;52.008;4.708;2024-03-06T08:42:40;102221.06;;;11.25;100.00
19831;BME280;10076;52.008;4.708;2024-03-06T08:45:06;102225.09;;;11.66;100.00
19831;BME280;10076;52.008;4.708;2024-03-06T08:47:33;102236.28;;;11.71;100.00
19831;BME280;10076;52.008;4.708;2024-03-06T08:49:58;102233.53;;;12.04;100.00
19831;BME280;10076;52.008;4.708;2024-03-06T08:52:23;102236.19;;;12.04;100.00
19831;BME280;10076;52.008;4.708;2024-03-06T08:54:49;102240.81;;;12.32;100.00
19831;BME280;10076;52.008;4.708;2024-03-06T08:57:14;102243.38;;;12.48;100.00
19831;BME280;10076;52.008;4.708;2024-03-06T08:59:41;102239.19;;;12.60;100.00
19831;BME280;10076;52.008;4.708;2024-03-06T09:02:18;102247.75;;;12.65;100.00
19831;BME280;10076;52.008;4.708;2024-03-06T09:04:45;102246.78;;;12.66;100.00
19831;BME280;10076;52.008;4.708;2024-03-06T09:07:10;102251.25;;;13.10;100.00
19831;BME280;10076;52.008;4.708;2024-03-06T09:09:36;102245.00;;;13.40;100.00
19831;BME280;10076;52.008;4.708;2024-03-06T09:12:06;102260.97;;;13.82;100.00
19831;BME280;10076;52.008;4.708;2024-03-06T09:14:32;102254.94;;;14.22;100.00
19831;BME280;10076;52.008;4.708;2024-03-06T09:16:58;102253.59;;;15.21;100.00
19831;BME280;10076;52.008;4.708;2024-03-06T09:19:23;102259.31;;;15.91;100.00
19831;BME280;10076;52.008;4.708;2024-03-06T09:21:49;102262.28;;;16.60;100.00
19831;BME280;10076;52.008;4.708;2024-03-06T09:24:14;102255.16;;;17.31;100.00
19831;BME280;10076;52.008;4.708;2024-03-06T09:26:39;102260.19;;;16.76;100.00
19831;BME280;10076;52.008;4.708;2024-03-06T09:29:05;102262.91;;;17.90;100.00
19831;BME280;10076;52.008;4.708;2024-03-06T09:31:30;102265.38;;;18.14;100.00
19831;BME280;10076;52.008;4.708;2024-03-06T09:33:55;102267.38;;;18.87;100.00
19831;BME280;10076;52.008;4.708;2024-03-06T09:36:23;102270.97;;;19.08;100.00
19831;BME280;10076;52.008;4.708;2024-03-06T09:38:49;102268.63;;;19.46;100.00
19831;BME280;10076;52.008;4.708;2024-03-06T09:41:14;102284.41;;;20.40;100.00
19831;BME280;10076;52.008;4.708;2024-03-06T09:43:39;102284.72;;;21.23;100.00
19831;BME280;10076;52.008;4.708;2024-03-06T09:46:06;102285.75;;;21.60;100.00
19831;BME280;10076;52.008;4.708;2024-03-06T09:48:33;102286.41;;;21.81;100.00
19831;BME280;10076;52.008;4.708;2024-03-06T09:51:01;102284.38;;;22.47;100.00
19831;BME280;10076;52.008;4.708;2024-03-06T09:53:29;102292.22;;;23.12;100.00
19831;BME280;10076;52.008;4.708;2024-03-06T09:55:56;102288.69;;;23.89;100.00
19831;BME280;10076;52.008;4.708;2024-03-06T09:58:21;102295.72;;;23.82;100.00
19831;BME280;10076;52.008;4.708;2024-03-06T10:00:48;102302.50;;;24.78;100.00
19831;BME280;10076;52.008;4.708;2024-03-06T10:03:14;102303.72;;;25.56;100.00
19831;BME280;10076;52.008;4.708;2024-03-06T10:05:39;102312.81;;;25.39;100.00
19831;BME280;10076;52.008;4.708;2024-03-06T10:08:05;102305.84;;;25.21;100.00
19831;BME280;10076;52.008;4.708;2024-03-06T10:10:30;102306.75;;;25.77;100.00
19831;BME280;10076;52.008;4.708;2024-03-06T10:12:56;102310.31;;;26.55;100.00
19831;BME280;10076;52.008;4.708;2024-03-06T10:15:22;102313.44;;;27.13;100.00
19831;BME280;10076;52.008;4.708;2024-03-06T10:17:48;102314.81;;;26.79;100.00
19831;BME280;10076;52.008;4.708;2024-03-06T10:20:21;102317.06;;;27.50;100.00
19831;BME280;10076;52.008;4.708;2024-03-06T10:22:51;102316.16;;;27.80;100.00
19831;BME280;10076;52.008;4.708;2024-03-06T10:25:21;102313.91;;;27.69;98.33
19831;BME280;10076;52.008;4.708;2024-03-06T10:28:09;102309.50;;;28.63;97.73
19831;BME280;10076;52.008;4.708;2024-03-06T10:30:36;102321.38;;;29.61;90.61
19831;BME280;10076;52.008;4.708;2024-03-06T10:33:03;102316.22;;;29.31;89.74
19831;BME280;10076;52.008;4.708;2024-03-06T10:35:29;102324.84;;;29.48;84.45
19831;BME280;10076;52.008;4.708;2024-03-06T10:37:55;102323.50;;;29.44;87.39
19831;BME280;10076;52.008;4.708;2024-03-06T10:40:22;102324.31;;;30.08;82.39
19831;BME280;10076;52.008;4.708;2024-03-06T10:42:48;102329.34;;;31.12;79.98
19831;BME280;10076;52.008;4.708;2024-03-06T10:45:14;102326.69;;;30.84;76.55
19831;BME280;10076;52.008;4.708;2024-03-06T10:47:46;102331.78;;;30.94;74.77
19831;BME280;10076;52.008;4.708;2024-03-06T10:50:15;102336.34;;;30.87;70.69
19831;BME280;10076;52.008;4.708;2024-03-06T10:52:40;102334.25;;;28.67;73.69
19831;BME280;10076;52.008;4.708;2024-03-06T10:55:08;102332.84;;;27.77;83.61
19831;BME280;10076;52.008;4.708;2024-03-06T10:57:36;102340.16;;;29.00;78.90
19831;BME280;10076;52.008;4.708;2024-03-06T11:00:03;102333.44;;;28.53;76.66
19831;BME280;10076;52.008;4.708;2024-03-06T11:02:29;102332.00;;;27.02;80.16
19831;BME280;10076;52.008;4.708;2024-03-06T11:04:55;102328.38;;;26.09;87.44
19831;BME280;10076;52.008;4.708;2024-03-06T11:07:20;102332.06;;;26.86;85.17
19831;BME280;10076;52.008;4.708;2024-03-06T11:09:46;102339.91;;;27.64;80.31
19831;BME280;10076;52.008;4.708;2024-03-06T11:12:32;102344.09;;;28.97;76.98
19831;BME280;10076;52.008;4.708;2024-03-06T11:14:58;102347.16;;;29.09;76.72
19831;BME280;10076;52.008;4.708;2024-03-06T11:17:26;102338.38;;;27.39;79.51
19831;BME280;10076;52.008;4.708;2024-03-06T11:28:26;102346.97;;;23.12;100.00
19831;BME280;10076;52.008;4.708;2024-03-06T11:31:02;102349.72;;;26.20;94.11
19831;BME280;10076;52.008;4.708;2024-03-06T11:33:34;102355.88;;;29.96;83.27
19831;BME280;10076;52.008;4.708;2024-03-06T11:36:18;102354.09;;;31.04;71.04
19831;BME280;10076;52.008;4.708;2024-03-06T11:39:06;102361.66;;;28.52;71.60
19831;BME280;10076;52.008;4.708;2024-03-06T11:41:49;102354.28;;;25.64;80.51
19831;BME280;10076;52.008;4.708;2024-03-06T11:44:16;102350.13;;;23.95;87.92
19831;BME280;10076;52.008;4.708;2024-03-06T11:46:45;102348.22;;;22.09;96.81
19831;BME280;10076;52.008;4.708;2024-03-06T11:51:40;102352.72;;;25.45;95.17
19831;BME280;10076;52.008;4.708;2024-03-06T11:54:06;102360.94;;;29.22;87.77
19831;BME280;10076;52.008;4.708;2024-03-06T11:56:31;102357.34;;;31.40;75.97
19831;BME280;10076;52.008;4.708;2024-03-06T11:58:57;102373.25;;;33.17;69.02
19831;BME280;10076;52.008;4.708;2024-03-06T12:01:22;102367.81;;;34.09;63.94
19831;BME280;10076;52.008;4.708;2024-03-06T12:03:47;102373.22;;;35.47;59.29
19831;BME280;10076;52.008;4.708;2024-03-06T12:06:13;102375.16;;;36.79;52.11
19831;BME280;10076;52.008;4.708;2024-03-06T12:08:39;102369.16;;;36.93;47.84
19831;BME280;10076;52.008;4.708;2024-03-06T12:11:05;102376.31;;;37.89;45.19
19831;BME280;10076;52.008;4.708;2024-03-06T12:13:31;102372.88;;;38.85;43.77
19831;BME280;10076;52.008;4.708;2024-03-06T12:15:56;102372.69;;;40.23;41.65
19831;BME280;10076;52.008;4.708;2024-03-06T12:18:23;102374.16;;;40.72;38.60
19831;BME280;10076;52.008;4.708;2024-03-06T12:20:49;102366.94;;;40.71;36.36
19831;BME280;10076;52.008;4.708;2024-03-06T12:23:22;102368.19;;;39.07;36.53
19831;BME280;10076;52.008;4.708;2024-03-06T12:25:48;102363.06;;;37.19;38.99
19831;BME280;10076;52.008;4.708;2024-03-06T12:28:13;102359.88;;;37.66;39.80
19831;BME280;10076;52.008;4.708;2024-03-06T12:30:41;102364.59;;;38.15;37.81
19831;BME280;10076;52.008;4.708;2024-03-06T12:33:08;102360.81;;;36.88;36.62
19831;BME280;10076;52.008;4.708;2024-03-06T12:35:33;102352.22;;;36.16;39.37
19831;BME280;10076;52.008;4.708;2024-03-06T12:37:59;102360.25;;;37.42;38.09
19831;BME280;10076;52.008;4.708;2024-03-06T12:40:24;102363.66;;;38.80;36.06
19831;BME280;10076;52.008;4.708;2024-03-06T12:42:50;102353.09;;;39.67;35.71
19831;BME280;10076;52.008;4.708;2024-03-06T12:45:17;102373.38;;;40.40;35.09
19831;BME280;10076;52.008;4.708;2024-03-06T12:47:44;102369.91;;;40.23;33.15
19831;BME280;10076;52.008;4.708;2024-03-06T12:50:11;102362.31;;;40.40;31.78
19831;BME280;10076;52.008;4.708;2024-03-06T12:52:37;102365.97;;;38.29;31.51